Time;durP1;ratioP1;P1;durP2;ratioP2;P2;SDS_P1;SDS_P2;PMS_P1;PMS_P2;Temp;Humidity;BMP_temperature;BMP_pressure;BME280_temperature;BME280_humidity;BME280_pressure;Samples;Min_cycle;Max_cycle;Signal;HPM_P1;HPM_P2
2022/05/13 00:01:28;;;;;;;5.38;4.55;;;;;;;15.93;93.86;95916.16;5020249;28;20207;-77
2022/05/13 00:03:54;;;;;;;6.88;4.70;;;;;;;15.83;94.03;95925.03;5036644;28;20644;-77
2022/05/13 00:06:20;;;;;;;8.98;5.20;;;;;;;15.81;94.42;95923.56;5019924;28;20195;-77
2022/05/13 00:08:45;;;;;;;7.38;5.07;;;;;;;15.71;95.45;95929.00;5037507;28;20582;-77
2022/05/13 00:11:11;;;;;;;6.32;4.57;;;;;;;15.77;95.17;95925.72;5028778;28;20219;-77
2022/05/13 00:13:37;;;;;;;7.20;4.45;;;;;;;15.78;95.26;95923.91;4999068;28;20294;-77
2022/05/13 00:16:04;;;;;;;4.75;4.00;;;;;;;15.87;94.33;95925.50;4982540;28;20195;-77
2022/05/13 00:18:29;;;;;;;9.45;4.97;;;;;;;15.82;94.49;95933.88;4998594;28;20234;-77
2022/05/13 00:20:54;;;;;;;6.30;4.50;;;;;;;15.86;94.13;95922.06;4999188;28;20564;-77
2022/05/13 00:23:20;;;;;;;6.05;4.20;;;;;;;15.78;94.73;95923.91;5000146;28;20572;-77
2022/05/13 00:25:45;;;;;;;6.70;4.40;;;;;;;15.76;94.98;95920.66;4982141;28;20211;-77
2022/05/13 00:28:10;;;;;;;6.95;4.68;;;;;;;15.76;95.03;95913.59;4999315;28;20649;-77
2022/05/13 00:30:38;;;;;;;6.38;4.80;;;;;;;15.79;95.17;95925.53;5002258;28;20197;-77
2022/05/13 00:33:04;;;;;;;5.10;4.35;;;;;;;15.80;94.83;95922.75;5018144;28;20211;-77
2022/05/13 00:35:30;;;;;;;6.38;4.68;;;;;;;15.81;94.94;95918.31;5017653;28;20206;-77
2022/05/13 00:37:55;;;;;;;5.50;5.00;;;;;;;15.86;94.68;95913.41;5018090;28;20206;-77
2022/05/13 00:40:22;;;;;;;6.03;5.43;;;;;;;15.82;95.06;95910.31;5018456;28;20185;-77
2022/05/13 00:42:48;;;;;;;10.05;5.85;;;;;;;15.73;96.00;95908.72;5023081;28;20675;-77
2022/05/13 00:45:14;;;;;;;8.48;5.22;;;;;;;15.73;96.38;95911.34;5026347;28;20225;-77
2022/05/13 00:47:40;;;;;;;9.85;5.45;;;;;;;15.63;97.85;95917.75;5023384;28;20178;-78
2022/05/13 00:50:06;;;;;;;10.48;5.55;;;;;;;15.56;99.25;95915.78;5022921;28;20694;-77
2022/05/13 00:52:32;;;;;;;7.82;5.45;;;;;;;15.53;99.58;95910.88;5022842;28;20187;-77
2022/05/13 00:54:58;;;;;;;13.30;6.28;;;;;;;15.53;100.00;95910.88;5023077;28;20209;-76
2022/05/13 00:57:24;;;;;;;10.40;5.75;;;;;;;15.47;100.00;95906.34;5024561;28;20563;-76
2022/05/13 00:59:51;;;;;;;10.98;6.43;;;;;;;15.42;100.00;95908.63;5007983;28;20187;-77
2022/05/13 01:02:16;;;;;;;11.20;6.40;;;;;;;15.49;100.00;95906.16;5024426;28;20178;-77
2022/05/13 01:04:42;;;;;;;7.10;6.40;;;;;;;15.50;100.00;95895.53;5007035;28;20181;-77
2022/05/13 01:07:18;;;;;;;7.22;6.43;;;;;;;15.50;100.00;95895.53;5024476;28;20174;-78
2022/05/13 01:09:49;;;;;;;7.50;6.75;;;;;;;15.54;100.00;95896.81;5024127;28;20238;-78
2022/05/13 01:12:18;;;;;;;8.20;6.32;;;;;;;15.55;100.00;95893.22;5010383;28;20648;-78
2022/05/13 01:14:53;;;;;;;9.73;6.80;;;;;;;15.52;100.00;95888.31;5008102;28;20187;-77
2022/05/13 01:20:24;;;;;;;8.63;7.72;;;;;;;15.50;100.00;95892.09;5027351;28;20228;-78
2022/05/13 01:22:53;;;;;;;7.20;6.47;;;;;;;15.49;100.00;95899.13;5023971;28;20179;-77
2022/05/13 01:25:24;;;;;;;9.20;6.20;;;;;;;15.46;100.00;95894.25;5018885;28;20218;-77
2022/05/13 01:27:49;;;;;;;7.65;6.72;;;;;;;15.44;100.00;95896.19;5020090;28;20252;-77
2022/05/13 01:30:21;;;;;;;9.45;6.97;;;;;;;15.47;100.00;95897.69;5004060;28;20206;-76
2022/05/13 01:32:46;;;;;;;9.10;7.63;;;;;;;15.51;100.00;95899.75;5001702;28;20206;-77
2022/05/13 01:35:13;;;;;;;9.85;7.00;;;;;;;15.44;100.00;95909.28;5000735;28;20235;-78
2022/05/13 01:37:39;;;;;;;9.82;7.43;;;;;;;15.46;100.00;95903.88;5003212;28;20559;-78
2022/05/13 01:40:05;;;;;;;11.35;7.88;;;;;;;15.40;100.00;95884.44;5021593;28;20250;-77
2022/05/13 01:42:31;;;;;;;10.25;7.55;;;;;;;15.34;100.00;95879.88;5020622;28;20198;-78
2022/05/13 01:44:57;;;;;;;14.27;7.88;;;;;;;15.34;100.00;95890.34;5003954;28;20191;-77
2022/05/13 01:47:23;;;;;;;9.68;7.85;;;;;;;15.29;100.00;95895.28;5021284;28;20442;-77
2022/05/13 01:49:49;;;;;;;8.95;8.00;;;;;;;15.35;100.00;95912.09;5004147;28;20175;-77
2022/05/13 01:52:14;;;;;;;8.82;6.97;;;;;;;15.35;100.00;95914.69;5003350;28;20183;-77
2022/05/13 01:54:39;;;;;;;10.30;8.25;;;;;;;15.32;100.00;95912.44;5002769;28;20673;-77
2022/05/13 01:57:05;;;;;;;17.67;7.68;;;;;;;15.33;100.00;95912.25;5003003;28;20195;-77
2022/05/13 01:59:30;;;;;;;12.60;8.23;;;;;;;15.29;100.00;95908.34;5002472;28;20194;-77
2022/05/13 02:01:56;;;;;;;9.30;8.32;;;;;;;15.30;100.00;95905.56;5020213;28;20179;-77
2022/05/13 02:04:21;;;;;;;10.90;8.70;;;;;;;15.28;100.00;95906.69;5001012;28;20181;-76
2022/05/13 02:06:46;;;;;;;9.43;7.90;;;;;;;15.29;100.00;95906.56;5002123;28;20576;-77
2022/05/13 02:09:12;;;;;;;9.20;7.93;;;;;;;15.33;100.00;95914.88;5001600;28;20179;-77
2022/05/13 02:11:37;;;;;;;10.52;7.88;;;;;;;15.23;100.00;95909.03;5002015;28;20197;-77
2022/05/13 02:14:04;;;;;;;9.38;7.78;;;;;;;15.23;100.00;95914.25;5000864;28;20202;-78
2022/05/13 02:16:29;;;;;;;9.70;7.30;;;;;;;15.21;100.00;95903.16;5001523;28;20326;-77
2022/05/13 02:18:55;;;;;;;8.55;6.53;;;;;;;15.21;100.00;95911.00;5001776;28;20218;-77
2022/05/13 02:21:20;;;;;;;9.95;6.97;;;;;;;15.24;100.00;95905.41;5001403;28;20183;-77
2022/05/13 02:23:45;;;;;;;10.93;6.95;;;;;;;15.18;100.00;95899.03;5000247;28;20393;-77
2022/05/13 02:26:12;;;;;;;9.20;7.18;;;;;;;15.20;100.00;95893.66;5001219;28;20722;-77
2022/05/13 02:28:38;;;;;;;9.20;6.82;;;;;;;15.20;100.00;95893.66;5000823;28;20222;-77
2022/05/13 02:31:04;;;;;;;9.50;6.97;;;;;;;15.25;100.00;95891.34;5033927;28;20179;-77
2022/05/13 02:33:29;;;;;;;9.40;6.60;;;;;;;15.21;100.00;95893.50;5000910;28;20199;-77
2022/05/13 02:35:55;;;;;;;9.02;7.07;;;;;;;15.22;100.00;95894.31;5000050;28;20207;-77
2022/05/13 02:38:21;;;;;;;13.82;7.35;;;;;;;15.23;100.00;95888.09;5000730;28;20539;-77
2022/05/13 02:43:31;;;;;;;10.43;6.85;;;;;;;15.04;100.00;95891.91;5003211;28;20209;-77
2022/05/13 02:45:57;;;;;;;7.70;6.85;;;;;;;15.11;100.00;95894.69;4998441;28;20230;-77
2022/05/13 02:48:22;;;;;;;9.27;7.03;;;;;;;15.14;100.00;95891.72;4999135;28;20226;-77
2022/05/13 02:50:47;;;;;;;8.85;6.82;;;;;;;15.16;100.00;95894.97;4999739;28;20200;-77
2022/05/13 02:53:13;;;;;;;7.95;7.15;;;;;;;15.20;100.00;95909.38;5016393;28;20234;-77
2022/05/13 02:55:39;;;;;;;6.93;6.32;;;;;;;15.14;100.00;95912.63;5031812;28;20310;-77
2022/05/13 02:58:07;;;;;;;9.65;6.03;;;;;;;15.09;100.00;95915.75;4999536;28;20191;-77
2022/05/13 03:00:33;;;;;;;8.95;6.53;;;;;;;15.08;100.00;95905.44;5000056;28;20185;-77
2022/05/13 03:02:59;;;;;;;9.50;7.15;;;;;;;15.02;100.00;95905.16;5000502;28;20543;-77
2022/05/13 03:05:24;;;;;;;7.65;6.85;;;;;;;15.05;100.00;95904.00;4999485;28;20230;-77
2022/05/13 03:07:50;;;;;;;12.73;6.68;;;;;;;15.09;100.00;95896.63;4999988;28;20171;-76
2022/05/13 03:10:15;;;;;;;8.02;5.68;;;;;;;15.03;100.00;95895.50;4999577;28;20190;-77
2022/05/13 03:12:41;;;;;;;12.10;6.43;;;;;;;14.96;100.00;95899.75;4998718;28;20226;-77
2022/05/13 03:15:06;;;;;;;8.82;5.55;;;;;;;14.92;100.00;95885.38;5014684;28;20203;-77
2022/05/13 03:17:34;;;;;;;9.85;5.90;;;;;;;14.88;98.84;95890.13;4981399;28;20187;-77
2022/05/13 03:20:00;;;;;;;11.57;5.30;;;;;;;14.80;97.93;95882.28;4990321;28;20189;-76
2022/05/13 03:22:25;;;;;;;7.22;5.50;;;;;;;14.71;97.51;95878.88;5020192;28;20187;-77
2022/05/13 03:24:51;;;;;;;10.25;5.57;;;;;;;14.74;97.41;95886.38;5002870;28;20225;-77
2022/05/13 03:27:16;;;;;;;7.25;5.10;;;;;;;14.61;97.43;95887.88;5009143;28;20175;-77
2022/05/13 03:29:41;;;;;;;11.07;5.45;;;;;;;14.55;97.84;95886.72;5029324;28;20234;-77
2022/05/13 03:32:08;;;;;;;9.60;5.70;;;;;;;14.52;98.75;95888.84;5012788;28;20179;-77
2022/05/13 03:34:36;;;;;;;9.77;6.53;;;;;;;14.49;98.68;95886.53;5011789;28;20206;-76
2022/05/13 03:37:01;;;;;;;9.85;5.40;;;;;;;14.53;97.87;95887.88;5011872;28;20244;-78
2022/05/13 03:39:27;;;;;;;9.83;5.13;;;;;;;14.47;96.71;95891.94;5009904;28;20252;-77
2022/05/13 03:41:52;;;;;;;7.07;4.97;;;;;;;14.36;94.62;95895.66;5010091;28;20229;-77
2022/05/13 03:44:18;;;;;;;7.78;4.75;;;;;;;14.44;95.15;95887.81;5010581;28;20179;-78
2022/05/13 03:46:43;;;;;;;7.67;4.17;;;;;;;14.42;95.75;95889.78;4993861;28;20294;-78
2022/05/13 03:49:09;;;;;;;10.60;4.57;;;;;;;14.42;95.76;95894.19;5011407;28;20187;-78
2022/05/13 03:51:35;;;;;;;7.83;4.07;;;;;;;14.35;96.46;95904.47;5010811;28;20193;-78
2022/05/13 03:54:00;;;;;;;11.40;5.17;;;;;;;14.34;97.23;95896.81;5024802;28;20210;-78
2022/05/13 03:56:25;;;;;;;8.87;4.83;;;;;;;14.43;96.98;95898.44;5007665;28;20325;-78
2022/05/13 03:58:51;;;;;;;9.97;5.03;;;;;;;14.42;97.60;95891.59;5011525;28;20189;-78
2022/05/13 04:01:17;;;;;;;7.13;4.90;;;;;;;14.39;98.07;95881.44;5029115;28;20174;-77
2022/05/13 04:03:42;;;;;;;9.77;5.00;;;;;;;14.51;97.90;95882.81;5029430;28;20201;-77
2022/05/13 04:08:58;;;;;;;8.73;5.30;;;;;;;14.53;97.91;95880.03;5047281;28;20303;-78
2022/05/13 04:11:24;;;;;;;6.83;4.63;;;;;;;14.62;97.53;95884.25;5046803;28;20190;-78
2022/05/13 04:16:34;;;;;;;8.80;5.40;;;;;;;14.61;97.01;95887.88;5029584;28;20299;-77
2022/05/13 04:18:59;;;;;;;11.20;5.33;;;;;;;14.62;95.87;95903.38;5028413;28;20189;-78
2022/05/13 04:21:32;;;;;;;7.32;4.53;;;;;;;14.59;96.39;95892.44;5027436;28;20183;-78
2022/05/13 04:24:00;;;;;;;9.73;5.60;;;;;;;14.47;97.85;95897.16;5008289;28;20201;-77
2022/05/13 04:26:26;;;;;;;7.23;4.20;;;;;;;14.48;96.10;95890.13;5008575;28;20252;-79
2022/05/13 04:28:52;;;;;;;8.00;4.67;;;;;;;14.42;95.70;95894.19;5024539;28;20183;-78
2022/05/13 04:31:21;;;;;;;5.57;4.00;;;;;;;14.44;94.53;95889.63;5041958;28;20191;-78
2022/05/13 04:33:47;;;;;;;10.80;4.78;;;;;;;14.38;94.64;95892.88;5000335;28;20198;-76
2022/05/13 04:36:13;;;;;;;10.70;4.20;;;;;;;14.46;94.39;95913.81;5030940;28;20214;-76
2022/05/13 04:38:38;;;;;;;9.63;4.80;;;;;;;14.50;94.77;95915.16;5016757;28;20187;-77
2022/05/13 04:43:48;;;;;;;8.73;4.60;;;;;;;14.49;94.67;95917.91;5033450;28;20250;-77
2022/05/13 04:46:14;;;;;;;7.07;4.13;;;;;;;14.53;94.61;95914.81;5014234;28;20287;-77
2022/05/13 04:48:40;;;;;;;8.73;4.05;;;;;;;14.62;93.68;95920.84;5035540;28;20269;-77
2022/05/13 04:51:05;;;;;;;8.37;4.70;;;;;;;14.65;93.89;95928.34;5016357;28;20183;-77
2022/05/13 04:53:34;;;;;;;7.87;3.70;;;;;;;14.76;93.77;95929.84;5015462;28;20525;-77
2022/05/13 04:56:00;;;;;;;10.52;4.45;;;;;;;14.69;93.25;95933.13;5002249;28;20226;-78
2022/05/13 04:58:26;;;;;;;6.05;4.20;;;;;;;14.76;92.45;95937.69;5010808;28;20232;-79
2022/05/13 05:00:54;;;;;;;8.50;3.55;;;;;;;14.73;90.41;95930.97;5025286;28;20340;-78
2022/05/13 05:03:21;;;;;;;8.77;3.50;;;;;;;14.72;89.98;95934.56;5025888;28;20543;-77
2022/05/13 05:05:46;;;;;;;9.20;4.20;;;;;;;14.72;90.82;95937.19;5025521;28;20201;-79
2022/05/13 05:08:13;;;;;;;8.97;3.87;;;;;;;14.65;90.81;95930.97;5007505;28;20373;-79
2022/05/13 05:10:39;;;;;;;7.85;3.97;;;;;;;14.77;90.88;95931.47;5033783;28;20198;-79
2022/05/13 05:13:07;;;;;;;6.20;4.00;;;;;;;14.99;90.63;95936.84;5008485;28;20312;-79
2022/05/13 05:15:33;;;;;;;8.47;3.67;;;;;;;15.07;89.50;95940.44;5038381;28;20241;-77
2022/05/13 05:17:59;;;;;;;6.50;4.20;;;;;;;15.28;89.07;95940.72;5027077;28;20199;-77
2022/05/13 05:20:24;;;;;;;7.40;3.63;;;;;;;15.32;88.05;95941.22;5004843;28;20661;-79
2022/05/13 05:22:50;;;;;;;10.50;3.53;;;;;;;15.21;86.37;95942.38;5041559;28;20181;-78
2022/05/13 05:25:16;;;;;;;4.55;3.15;;;;;;;15.17;85.56;95938.44;4980987;28;1006238;-79
2022/05/13 05:27:42;;;;;;;8.50;3.58;;;;;;;15.24;85.43;95948.09;5038256;28;20179;-79
2022/05/13 05:30:08;;;;;;;8.95;3.42;;;;;;;15.29;85.75;95945.00;5041595;28;20241;-79
2022/05/13 05:32:33;;;;;;;6.07;3.15;;;;;;;15.30;86.06;95949.22;5053664;28;20799;-77
2022/05/13 05:34:59;;;;;;;6.90;3.60;;;;;;;15.15;85.55;95951.69;5039488;28;20214;-78
2022/05/13 05:37:24;;;;;;;6.78;3.60;;;;;;;15.15;85.17;95949.09;5041779;28;20185;-79
2022/05/13 05:39:49;;;;;;;6.55;3.25;;;;;;;15.16;85.69;95939.44;5040217;28;20206;-78
2022/05/13 05:42:15;;;;;;;6.82;3.10;;;;;;;15.15;86.51;95951.69;5021343;28;20178;-78
2022/05/13 05:44:40;;;;;;;5.68;3.05;;;;;;;15.15;85.94;95953.50;5031049;28;20181;-78
2022/05/13 05:47:06;;;;;;;6.15;3.25;;;;;;;15.16;85.71;95950.72;5034764;28;20200;-79
2022/05/13 05:49:31;;;;;;;6.03;3.55;;;;;;;15.14;86.23;95950.06;5032208;28;20190;-79
2022/05/13 05:51:57;;;;;;;9.20;3.43;;;;;;;15.19;85.82;95955.59;5020833;28;20185;-78
2022/05/13 05:57:15;;;;;;;6.88;3.30;;;;;;;15.17;85.35;95962.00;5016294;28;20236;-79
2022/05/13 05:59:42;;;;;;;4.80;3.05;;;;;;;15.21;85.32;95965.94;5012396;28;20178;-78
2022/05/13 06:02:08;;;;;;;8.38;3.28;;;;;;;15.20;85.01;95957.28;5029423;28;20189;-78
2022/05/13 06:04:33;;;;;;;5.30;3.08;;;;;;;15.12;85.44;95957.28;5011294;28;20194;-77
2022/05/13 06:06:59;;;;;;;6.95;3.22;;;;;;;15.22;86.61;95954.47;5028972;28;20178;-78
2022/05/13 06:09:24;;;;;;;6.13;3.58;;;;;;;15.33;85.32;95958.53;5025274;28;20199;-78
2022/05/13 06:11:50;;;;;;;6.57;3.28;;;;;;;15.32;85.80;95960.34;5014548;28;20187;-79
2022/05/13 06:14:15;;;;;;;6.97;3.45;;;;;;;15.51;85.06;95970.44;5030361;28;20207;-79
2022/05/13 06:16:40;;;;;;;6.38;3.45;;;;;;;15.55;82.74;95963.09;5010193;28;20203;-79
2022/05/13 06:19:06;;;;;;;7.32;3.10;;;;;;;15.65;82.30;95960.31;5015326;28;20205;-79
2022/05/13 06:21:33;;;;;;;6.15;2.75;;;;;;;15.63;79.77;95964.88;5034171;28;20178;-79
2022/05/13 06:23:59;;;;;;;8.02;3.05;;;;;;;15.97;79.13;95962.78;5020859;28;20186;-79
2022/05/13 06:26:24;;;;;;;8.48;2.80;;;;;;;16.21;79.03;95972.31;5014003;28;20464;-78
2022/05/13 06:28:50;;;;;;;6.18;2.80;;;;;;;16.44;77.87;95967.13;5012583;28;20189;-79
2022/05/13 06:31:16;;;;;;;7.28;3.13;;;;;;;16.46;76.55;95970.38;5031759;28;20188;-78
2022/05/13 06:33:42;;;;;;;8.35;3.08;;;;;;;16.81;74.72;95971.66;5017972;28;20202;-79
2022/05/13 06:36:07;;;;;;;6.13;2.70;;;;;;;16.76;75.23;95971.34;5040018;28;20225;-79
2022/05/13 06:38:32;;;;;;;5.60;2.30;;;;;;;16.82;75.57;95973.28;5044566;28;20186;-79
2022/05/13 06:40:58;;;;;;;7.13;2.60;;;;;;;16.83;76.96;95972.28;5032924;28;20189;-78
2022/05/13 06:43:23;;;;;;;7.15;2.78;;;;;;;16.99;75.38;95976.59;5042627;28;20183;-78
2022/05/13 06:45:49;;;;;;;7.00;2.63;;;;;;;17.13;75.40;95982.84;5038277;28;20204;-78
2022/05/13 06:48:14;;;;;;;6.68;2.50;;;;;;;17.38;72.43;95986.06;5031506;28;20196;-79
2022/05/13 06:50:42;;;;;;;6.78;3.03;;;;;;;18.03;71.33;95980.16;5046659;28;20188;-79
2022/05/13 06:53:08;;;;;;;6.68;2.78;;;;;;;18.37;70.11;95990.03;5016511;28;20205;-78
2022/05/13 06:55:33;;;;;;;9.30;2.50;;;;;;;18.37;68.80;96001.38;5020406;28;20639;-78
2022/05/13 06:57:58;;;;;;;8.20;2.95;;;;;;;18.22;68.98;95994.53;5022702;28;20178;-79
2022/05/13 07:00:24;;;;;;;8.82;2.75;;;;;;;17.94;69.46;95989.13;5031086;28;20199;-80
2022/05/13 07:02:49;;;;;;;5.55;2.33;;;;;;;18.18;69.88;96001.13;5043164;28;20166;-79
2022/05/13 07:05:17;;;;;;;7.47;3.10;;;;;;;17.95;71.48;95998.63;5027540;28;20293;-80
2022/05/13 07:07:42;;;;;;;4.05;2.20;;;;;;;17.86;71.05;96004.97;5047985;28;20224;-80
2022/05/13 07:10:08;;;;;;;5.28;2.33;;;;;;;18.03;72.10;96006.44;5037860;28;20190;-79
2022/05/13 07:12:33;;;;;;;7.63;2.42;;;;;;;17.98;71.07;96008.78;5033711;28;20165;-78
2022/05/13 07:14:58;;;;;;;6.07;2.97;;;;;;;18.15;69.50;96009.41;5035737;28;20197;-78
2022/05/13 07:17:24;;;;;;;4.97;2.38;;;;;;;18.22;68.42;96013.75;5020521;28;20199;-76
2022/05/13 07:19:49;;;;;;;6.93;2.60;;;;;;;18.40;67.90;96014.16;5032253;28;20273;-78
2022/05/13 07:22:14;;;;;;;7.85;2.70;;;;;;;18.46;66.38;96017.84;5056949;28;20682;-77
2022/05/13 07:24:40;;;;;;;5.28;2.90;;;;;;;18.67;64.96;96014.50;5056410;28;20200;-78
2022/05/13 07:27:05;;;;;;;10.77;2.83;;;;;;;18.19;66.57;96021.16;5023134;28;20265;-78
2022/05/13 07:29:31;;;;;;;7.78;2.58;;;;;;;18.19;65.89;96021.16;5039492;28;20221;-78
2022/05/13 07:31:56;;;;;;;10.88;3.03;;;;;;;18.16;65.27;96022.34;5032538;28;20241;-78
2022/05/13 07:34:22;;;;;;;14.00;2.80;;;;;;;18.26;66.64;96027.31;5056556;28;20211;-78
2022/05/13 07:36:48;;;;;;;8.93;2.50;;;;;;;17.95;66.02;96027.53;5058225;28;20213;-78
2022/05/13 07:41:58;;;;;;;6.93;2.50;;;;;;;17.95;66.44;96028.34;5058504;28;20261;-76
2022/05/13 07:44:24;;;;;;;8.70;2.75;;;;;;;17.91;65.67;96026.25;5041884;28;20182;-78
2022/05/13 07:46:51;;;;;;;10.43;2.78;;;;;;;17.64;65.83;96033.72;5047897;28;20204;-76
2022/05/13 07:49:16;;;;;;;8.13;2.60;;;;;;;17.56;66.44;96033.81;5056880;28;20249;-77
2022/05/13 07:51:41;;;;;;;4.72;2.28;;;;;;;17.74;64.02;96034.31;5056815;28;20197;-76
2022/05/13 07:54:07;;;;;;;8.40;2.60;;;;;;;17.89;63.63;96036.13;5058188;28;20198;-76
2022/05/13 07:56:32;;;;;;;7.78;2.47;;;;;;;17.71;64.43;96042.56;5041450;28;20196;-77
2022/05/13 07:59:00;;;;;;;7.05;3.03;;;;;;;17.46;64.91;96043.75;5054113;28;20188;-76
2022/05/13 08:01:26;;;;;;;5.10;2.67;;;;;;;17.37;65.96;96047.44;5035227;28;20170;-77
2022/05/13 08:03:51;;;;;;;4.90;3.13;;;;;;;17.88;65.56;96048.47;5046090;28;20225;-76
2022/05/13 08:06:17;;;;;;;5.80;2.53;;;;;;;17.75;65.78;96054.31;5041215;28;20249;-77
2022/05/13 08:08:45;;;;;;;8.45;2.67;;;;;;;17.68;64.77;96045.53;5054805;28;20181;-76
2022/05/13 08:11:13;;;;;;;7.03;2.17;;;;;;;17.69;64.89;96047.16;5037259;28;20183;-75
2022/05/13 08:13:38;;;;;;;8.98;2.55;;;;;;;17.86;65.61;96041.75;5032377;28;20207;-76
2022/05/13 08:16:06;;;;;;;11.07;2.50;;;;;;;18.17;64.47;96049.44;5047340;28;20288;-77
2022/05/13 08:18:31;;;;;;;5.75;2.60;;;;;;;18.53;62.88;96055.56;5046854;28;20173;-77
2022/05/13 08:20:57;;;;;;;8.88;2.45;;;;;;;18.62;60.92;96053.63;5050011;28;20238;-78
2022/05/13 08:23:22;;;;;;;4.90;2.33;;;;;;;18.78;59.67;96058.72;5041806;28;20254;-78
2022/05/13 08:25:49;;;;;;;6.38;2.17;;;;;;;19.15;60.41;96054.22;5043744;28;20238;-77
2022/05/13 08:28:16;;;;;;;4.35;2.22;;;;;;;19.03;59.46;96051.28;5045058;28;20256;-77
2022/05/13 08:30:42;;;;;;;12.18;2.55;;;;;;;19.25;57.99;96058.16;5027288;28;20226;-78
2022/05/13 08:33:10;;;;;;;8.40;2.33;;;;;;;19.47;58.94;96058.16;5032901;28;20202;-78
2022/05/13 08:35:37;;;;;;;6.43;2.15;;;;;;;19.71;57.29;96062.22;5037662;28;20218;-80
2022/05/13 08:38:02;;;;;;;8.05;2.30;;;;;;;19.58;57.28;96048.94;5034146;28;20277;-79
2022/05/13 08:40:50;;;;;;;9.02;2.22;;;;;;;20.30;54.80;96059.13;5038075;28;20191;-79
2022/05/13 08:43:22;;;;;;;6.90;2.55;;;;;;;20.31;51.64;96052.84;5054781;28;20192;-79
2022/05/13 08:45:56;;;;;;;5.47;2.35;;;;;;;20.45;53.09;96057.19;5036358;28;20198;-78
2022/05/13 08:48:50;;;;;;;7.70;2.30;;;;;;;20.17;52.34;96065.16;5021036;28;20238;-79
2022/05/13 08:51:18;;;;;;;5.35;2.20;;;;;;;19.42;52.14;96060.53;5030525;28;20200;-79
2022/05/13 08:54:15;;;;;;;8.68;2.05;;;;;;;19.76;51.85;96051.91;5027942;28;21060;-77
2022/05/13 08:56:48;;;;;;;7.75;2.40;;;;;;;19.74;52.84;96051.28;4995879;28;20199;-81
2022/05/13 08:59:19;;;;;;;6.70;2.65;;;;;;;19.22;54.37;96055.09;5021625;28;20208;-77
2022/05/13 09:01:53;;;;;;;3.97;1.98;;;;;;;19.03;52.01;96058.38;5024659;28;20233;-77
2022/05/13 09:04:36;;;;;;;4.05;1.95;;;;;;;18.76;52.57;96058.09;5002274;28;20257;-79
2022/05/13 09:07:04;;;;;;;6.03;2.17;;;;;;;18.34;54.03;96051.69;5011907;28;20185;-79
2022/05/13 09:09:31;;;;;;;6.60;2.10;;;;;;;18.45;54.48;96057.47;5011079;28;20254;-78
2022/05/13 09:12:08;;;;;;;5.88;2.40;;;;;;;18.89;54.28;96052.94;5031483;28;20182;-79
2022/05/13 09:14:40;;;;;;;6.30;2.45;;;;;;;18.78;55.08;96060.53;5042644;28;20272;-78
2022/05/13 09:17:31;;;;;;;5.95;2.00;;;;;;;19.37;52.03;96061.13;5035921;28;20240;-79
2022/05/13 09:20:03;;;;;;;4.82;1.90;;;;;;;19.46;51.83;96059.97;5040805;28;20185;-79
2022/05/13 09:22:42;;;;;;;7.82;2.30;;;;;;;19.52;52.51;96059.22;5030417;28;20174;-79
2022/05/13 09:25:21;;;;;;;5.72;1.95;;;;;;;19.79;51.73;96059.44;5015309;28;20583;-79
2022/05/13 09:27:49;;;;;;;11.55;2.47;;;;;;;19.87;53.02;96066.38;5029945;28;20178;-77
2022/05/13 09:30:23;;;;;;;5.15;2.60;;;;;;;20.08;51.70;96075.03;5027122;28;20666;-77
2022/05/13 09:32:48;;;;;;;8.80;2.55;;;;;;;20.07;51.06;96068.16;5043331;28;20205;-78
2022/05/13 09:35:35;;;;;;;5.72;2.15;;;;;;;20.64;50.68;96074.94;5031134;28;20218;-79
2022/05/13 09:38:12;;;;;;;6.53;2.63;;;;;;;20.30;51.98;96075.75;5011381;28;20175;-79
2022/05/13 09:40:38;;;;;;;9.15;2.72;;;;;;;19.94;52.04;96072.50;5024893;28;20174;-79
2022/05/13 09:43:04;;;;;;;5.88;2.58;;;;;;;20.55;50.24;96078.75;5045893;28;20183;-80
2022/05/13 09:45:31;;;;;;;6.78;2.95;;;;;;;20.39;50.25;96073.78;5029171;28;20205;-79
2022/05/13 09:48:05;;;;;;;5.80;3.05;;;;;;;19.93;51.71;96076.97;5029474;28;20652;-78
2022/05/13 09:50:33;;;;;;;5.30;3.00;;;;;;;19.92;53.03;96066.63;5039291;28;20181;-78
2022/05/13 09:53:03;;;;;;;11.48;3.10;;;;;;;20.07;53.34;96064.69;5055042;28;20198;-78
2022/05/13 09:55:49;;;;;;;4.60;2.92;;;;;;;20.44;52.46;96066.13;5037437;28;20289;-78
2022/05/13 09:58:21;;;;;;;8.23;2.92;;;;;;;20.74;52.96;96071.09;5011460;28;20691;-78
2022/05/13 10:00:49;;;;;;;5.70;2.90;;;;;;;20.82;51.18;96070.94;5035632;28;20178;-78
2022/05/13 10:03:25;;;;;;;4.35;2.92;;;;;;;20.61;51.34;96062.13;5034376;28;20194;-78
2022/05/13 10:06:16;;;;;;;6.40;2.70;;;;;;;19.98;53.74;96073.75;5007130;28;20210;-77
2022/05/13 10:08:52;;;;;;;6.07;2.92;;;;;;;20.28;52.15;96077.78;5053660;28;20186;-78
2022/05/13 10:14:27;;;;;;;6.05;3.00;;;;;;;20.01;52.82;96081.28;5034723;28;20212;-78
2022/05/13 10:16:54;;;;;;;6.90;3.03;;;;;;;20.00;53.42;96072.56;5022281;28;20209;-77
2022/05/13 10:19:42;;;;;;;6.43;3.20;;;;;;;20.26;52.75;96071.09;5029815;28;20195;-77
2022/05/13 10:22:16;;;;;;;4.78;2.53;;;;;;;20.28;52.82;96071.69;5038985;28;20214;-78
2022/05/13 10:24:47;;;;;;;6.43;2.90;;;;;;;20.37;51.81;96066.06;5048318;28;20240;-78
2022/05/13 10:27:31;;;;;;;7.07;2.50;;;;;;;20.55;50.36;96070.84;5056031;28;20190;-77
2022/05/13 10:30:08;;;;;;;7.45;2.78;;;;;;;20.14;51.15;96064.72;5027260;28;20166;-77
2022/05/13 10:33:00;;;;;;;9.90;3.10;;;;;;;20.64;52.04;96071.47;5011382;28;20228;-78
2022/05/13 10:35:32;;;;;;;6.75;2.45;;;;;;;20.80;51.54;96067.69;5030585;28;20229;-75
2022/05/13 10:38:16;;;;;;;7.15;2.97;;;;;;;20.87;49.30;96071.16;5011524;28;20181;-76
2022/05/13 10:40:42;;;;;;;5.97;2.80;;;;;;;20.94;50.37;96074.63;5039427;28;20195;-75
2022/05/13 10:43:35;;;;;;;4.93;3.00;;;;;;;21.37;51.16;96071.66;5015443;28;20178;-76
2022/05/13 10:46:21;;;;;;;6.80;2.70;;;;;;;21.47;50.47;96061.53;5016103;28;20206;-76
2022/05/13 10:48:49;;;;;;;6.32;2.30;;;;;;;21.27;49.32;96066.78;5020837;28;20181;-77
2022/05/13 10:51:22;;;;;;;6.68;2.20;;;;;;;21.14;47.90;96072.84;5021307;28;20252;-76
2022/05/13 10:54:11;;;;;;;8.07;2.70;;;;;;;21.27;49.65;96065.97;5028188;28;20194;-76
2022/05/13 10:56:58;;;;;;;4.55;2.30;;;;;;;21.18;48.86;96066.13;5001907;28;20820;-76
2022/05/13 10:59:34;;;;;;;10.85;2.63;;;;;;;21.50;48.10;96055.84;5037994;28;20218;-77
2022/05/13 11:02:26;;;;;;;10.70;2.72;;;;;;;21.77;47.08;96062.75;5028424;28;20281;-76
2022/05/13 11:05:30;;;;;;;8.63;2.80;;;;;;;21.43;46.90;96057.66;5021385;28;20254;-76
2022/05/13 11:08:16;;;;;;;6.65;2.58;;;;;;;21.31;47.71;96062.75;5031914;28;20216;-76
2022/05/13 11:11:20;;;;;;;5.45;2.78;;;;;;;21.59;48.26;96062.53;5004386;28;20192;-76
2022/05/13 11:14:00;;;;;;;7.30;3.05;;;;;;;21.03;48.01;96059.44;5016374;28;20220;-76
2022/05/13 11:16:53;;;;;;;6.78;2.92;;;;;;;20.72;49.66;96058.09;5029346;28;20363;-76
2022/05/13 11:19:27;;;;;;;7.97;2.72;;;;;;;21.13;49.02;96060.66;5029766;28;20185;-76
2022/05/13 11:22:11;;;;;;;3.22;2.85;;;;;;;21.24;48.61;96061.06;5011482;28;20250;-76
2022/05/13 11:28:19;;;;;;;7.43;2.88;;;;;;;21.12;49.98;96058.22;5030232;28;20197;-77
2022/05/13 11:31:22;;;;;;;8.20;3.05;;;;;;;20.74;50.87;96056.06;5020346;28;20598;-76
2022/05/13 11:33:56;;;;;;;5.05;2.78;;;;;;;20.70;51.58;96056.69;5037560;28;20284;-76
2022/05/13 11:36:38;;;;;;;5.07;2.92;;;;;;;20.74;51.19;96063.19;5049011;28;20197;-76
2022/05/13 11:39:25;;;;;;;7.40;2.80;;;;;;;20.81;50.67;96064.03;5031119;28;20185;-76
2022/05/13 11:42:12;;;;;;;10.38;2.75;;;;;;;20.18;52.22;96058.06;5049608;28;20189;-77
2022/05/13 11:44:41;;;;;;;6.22;2.97;;;;;;;20.40;49.50;96064.03;5018678;28;20674;-76
2022/05/13 11:47:14;;;;;;;6.55;2.08;;;;;;;20.91;49.39;96056.53;5010780;28;20267;-76
2022/05/13 11:49:43;;;;;;;5.28;2.78;;;;;;;20.91;49.60;96056.53;5002136;28;20179;-76
2022/05/13 11:52:11;;;;;;;5.55;2.45;;;;;;;20.92;49.13;96055.53;5040461;28;20217;-76
2022/05/13 11:54:36;;;;;;;7.10;2.72;;;;;;;21.23;48.63;96054.16;5029060;28;20209;-76
2022/05/13 11:57:16;;;;;;;4.78;2.17;;;;;;;21.17;48.53;96056.59;5026331;28;20186;-76
2022/05/13 11:59:52;;;;;;;4.35;2.50;;;;;;;21.00;48.03;96047.41;5034908;28;20185;-75
2022/05/13 12:02:49;;;;;;;5.30;2.47;;;;;;;21.24;48.22;96046.03;5030309;28;20170;-76
2022/05/13 12:05:17;;;;;;;7.65;2.80;;;;;;;21.05;48.54;96052.91;5027218;28;20210;-76
2022/05/13 12:07:57;;;;;;;7.03;2.70;;;;;;;21.42;48.13;96048.13;5052913;28;20281;-76